sensor_id;sensor_type;location;lat;lon;timestamp;P1;durP1;ratioP1;P2;durP2;ratioP2
44764;SDS011;30484;52.382;5.260;2022-12-07T00:00:26;11.77;;;3.10;;
44764;SDS011;30484;52.382;5.260;2022-12-07T00:02:55;14.30;;;2.80;;
44764;SDS011;30484;52.382;5.260;2022-12-07T00:05:25;14.50;;;3.05;;
44764;SDS011;30484;52.382;5.260;2022-12-07T00:07:58;12.88;;;2.47;;
44764;SDS011;30484;52.382;5.260;2022-12-07T00:10:27;16.30;;;2.75;;
44764;SDS011;30484;52.382;5.260;2022-12-07T00:12:55;21.80;;;3.17;;
44764;SDS011;30484;52.382;5.260;2022-12-07T00:15:26;18.85;;;2.80;;
44764;SDS011;30484;52.382;5.260;2022-12-07T00:17:56;20.50;;;3.20;;
44764;SDS011;30484;52.382;5.260;2022-12-07T00:20:25;21.23;;;2.67;;
44764;SDS011;30484;52.382;5.260;2022-12-07T00:22:53;20.15;;;3.08;;
44764;SDS011;30484;52.382;5.260;2022-12-07T00:25:22;14.32;;;2.40;;
44764;SDS011;30484;52.382;5.260;2022-12-07T00:27:51;22.48;;;3.13;;
44764;SDS011;30484;52.382;5.260;2022-12-07T00:30:23;15.38;;;2.42;;
44764;SDS011;30484;52.382;5.260;2022-12-07T00:32:52;19.95;;;2.30;;
44764;SDS011;30484;52.382;5.260;2022-12-07T00:35:20;17.55;;;3.72;;
44764;SDS011;30484;52.382;5.260;2022-12-07T00:37:50;20.80;;;2.45;;
44764;SDS011;30484;52.382;5.260;2022-12-07T00:40:20;19.77;;;2.65;;
44764;SDS011;30484;52.382;5.260;2022-12-07T00:42:50;18.90;;;2.65;;
44764;SDS011;30484;52.382;5.260;2022-12-07T00:45:19;20.27;;;2.25;;
44764;SDS011;30484;52.382;5.260;2022-12-07T00:47:50;10.57;;;1.95;;
44764;SDS011;30484;52.382;5.260;2022-12-07T00:50:21;14.63;;;2.22;;
44764;SDS011;30484;52.382;5.260;2022-12-07T00:52:53;16.90;;;2.08;;
44764;SDS011;30484;52.382;5.260;2022-12-07T00:55:24;16.50;;;2.17;;
44764;SDS011;30484;52.382;5.260;2022-12-07T00:58:01;20.17;;;2.15;;
44764;SDS011;30484;52.382;5.260;2022-12-07T01:00:33;19.92;;;2.63;;
44764;SDS011;30484;52.382;5.260;2022-12-07T01:03:09;13.45;;;2.17;;
44764;SDS011;30484;52.382;5.260;2022-12-07T01:05:48;22.43;;;2.40;;
44764;SDS011;30484;52.382;5.260;2022-12-07T01:08:19;13.00;;;2.10;;
44764;SDS011;30484;52.382;5.260;2022-12-07T01:10:57;13.60;;;1.75;;
44764;SDS011;30484;52.382;5.260;2022-12-07T01:13:27;11.18;;;1.38;;
44764;SDS011;30484;52.382;5.260;2022-12-07T01:16:00;10.38;;;2.05;;
44764;SDS011;30484;52.382;5.260;2022-12-07T01:18:41;14.00;;;1.92;;
44764;SDS011;30484;52.382;5.260;2022-12-07T01:21:11;18.10;;;1.75;;
44764;SDS011;30484;52.382;5.260;2022-12-07T01:23:43;19.60;;;2.33;;
44764;SDS011;30484;52.382;5.260;2022-12-07T01:26:14;24.10;;;1.80;;
44764;SDS011;30484;52.382;5.260;2022-12-07T01:28:45;12.95;;;1.42;;
44764;SDS011;30484;52.382;5.260;2022-12-07T01:31:16;15.35;;;2.00;;
44764;SDS011;30484;52.382;5.260;2022-12-07T01:33:49;15.82;;;1.67;;
44764;SDS011;30484;52.382;5.260;2022-12-07T01:36:23;15.75;;;1.90;;
44764;SDS011;30484;52.382;5.260;2022-12-07T01:38:58;11.63;;;1.85;;
44764;SDS011;30484;52.382;5.260;2022-12-07T01:41:29;16.67;;;2.05;;
44764;SDS011;30484;52.382;5.260;2022-12-07T01:44:15;15.95;;;2.20;;
44764;SDS011;30484;52.382;5.260;2022-12-07T01:46:51;25.05;;;2.08;;
44764;SDS011;30484;52.382;5.260;2022-12-07T01:49:25;22.35;;;2.97;;
44764;SDS011;30484;52.382;5.260;2022-12-07T01:52:01;12.85;;;1.45;;
44764;SDS011;30484;52.382;5.260;2022-12-07T01:54:41;26.15;;;1.90;;
44764;SDS011;30484;52.382;5.260;2022-12-07T01:57:12;7.68;;;1.77;;
44764;SDS011;30484;52.382;5.260;2022-12-07T01:59:44;13.60;;;1.50;;
44764;SDS011;30484;52.382;5.260;2022-12-07T02:02:17;12.88;;;1.45;;
44764;SDS011;30484;52.382;5.260;2022-12-07T02:04:59;12.82;;;1.33;;
44764;SDS011;30484;52.382;5.260;2022-12-07T02:07:34;18.10;;;1.20;;
44764;SDS011;30484;52.382;5.260;2022-12-07T02:10:13;18.80;;;2.10;;
44764;SDS011;30484;52.382;5.260;2022-12-07T02:12:49;23.10;;;1.80;;
44764;SDS011;30484;52.382;5.260;2022-12-07T02:15:20;13.50;;;1.40;;
44764;SDS011;30484;52.382;5.260;2022-12-07T02:17:56;23.83;;;1.90;;
44764;SDS011;30484;52.382;5.260;2022-12-07T02:20:34;8.98;;;1.48;;
44764;SDS011;30484;52.382;5.260;2022-12-07T02:29:40;18.55;;;1.40;;
44764;SDS011;30484;52.382;5.260;2022-12-07T02:32:18;18.70;;;1.42;;
44764;SDS011;30484;52.382;5.260;2022-12-07T02:34:56;15.18;;;1.52;;
44764;SDS011;30484;52.382;5.260;2022-12-07T02:37:34;14.63;;;1.67;;
44764;SDS011;30484;52.382;5.260;2022-12-07T02:40:12;20.85;;;1.73;;
44764;SDS011;30484;52.382;5.260;2022-12-07T02:42:48;15.05;;;1.30;;
44764;SDS011;30484;52.382;5.260;2022-12-07T02:45:24;17.92;;;1.65;;
44764;SDS011;30484;52.382;5.260;2022-12-07T02:47:57;26.13;;;1.90;;
44764;SDS011;30484;52.382;5.260;2022-12-07T02:50:30;24.38;;;2.38;;
44764;SDS011;30484;52.382;5.260;2022-12-07T02:52:59;18.23;;;1.58;;
44764;SDS011;30484;52.382;5.260;2022-12-07T02:55:30;9.50;;;1.10;;
44764;SDS011;30484;52.382;5.260;2022-12-07T02:58:18;9.10;;;1.50;;
44764;SDS011;30484;52.382;5.260;2022-12-07T03:01:08;16.75;;;1.88;;
44764;SDS011;30484;52.382;5.260;2022-12-07T03:03:51;12.27;;;1.30;;
44764;SDS011;30484;52.382;5.260;2022-12-07T03:06:39;19.38;;;1.80;;
44764;SDS011;30484;52.382;5.260;2022-12-07T03:09:19;16.42;;;1.33;;
44764;SDS011;30484;52.382;5.260;2022-12-07T03:11:55;19.58;;;1.70;;
44764;SDS011;30484;52.382;5.260;2022-12-07T03:14:30;11.55;;;1.15;;
44764;SDS011;30484;52.382;5.260;2022-12-07T03:17:08;16.40;;;1.42;;
44764;SDS011;30484;52.382;5.260;2022-12-07T03:19:42;11.95;;;1.27;;
44764;SDS011;30484;52.382;5.260;2022-12-07T03:22:15;18.90;;;1.60;;
44764;SDS011;30484;52.382;5.260;2022-12-07T03:24:47;26.05;;;1.70;;
44764;SDS011;30484;52.382;5.260;2022-12-07T03:27:25;11.02;;;1.38;;
44764;SDS011;30484;52.382;5.260;2022-12-07T03:30:00;13.13;;;1.33;;
44764;SDS011;30484;52.382;5.260;2022-12-07T03:32:37;14.13;;;1.60;;
44764;SDS011;30484;52.382;5.260;2022-12-07T03:35:12;25.05;;;1.92;;
44764;SDS011;30484;52.382;5.260;2022-12-07T03:37:49;20.63;;;1.50;;
44764;SDS011;30484;52.382;5.260;2022-12-07T03:40:26;12.43;;;1.40;;
44764;SDS011;30484;52.382;5.260;2022-12-07T03:43:00;11.63;;;1.20;;
44764;SDS011;30484;52.382;5.260;2022-12-07T03:45:36;13.00;;;1.50;;
44764;SDS011;30484;52.382;5.260;2022-12-07T03:48:26;16.10;;;2.00;;
44764;SDS011;30484;52.382;5.260;2022-12-07T03:51:02;9.30;;;1.10;;
44764;SDS011;30484;52.382;5.260;2022-12-07T03:53:50;17.23;;;1.60;;
44764;SDS011;30484;52.382;5.260;2022-12-07T03:56:26;8.20;;;1.13;;
44764;SDS011;30484;52.382;5.260;2022-12-07T03:58:58;8.88;;;1.27;;
44764;SDS011;30484;52.382;5.260;2022-12-07T04:01:28;15.85;;;1.42;;
44764;SDS011;30484;52.382;5.260;2022-12-07T04:04:02;16.67;;;1.65;;
44764;SDS011;30484;52.382;5.260;2022-12-07T04:06:32;15.38;;;1.45;;
44764;SDS011;30484;52.382;5.260;2022-12-07T04:09:03;8.20;;;1.52;;
44764;SDS011;30484;52.382;5.260;2022-12-07T04:11:35;8.93;;;1.13;;
44764;SDS011;30484;52.382;5.260;2022-12-07T04:14:05;18.60;;;2.05;;
44764;SDS011;30484;52.382;5.260;2022-12-07T04:16:51;14.20;;;1.00;;
44764;SDS011;30484;52.382;5.260;2022-12-07T04:19:26;13.32;;;1.60;;
44764;SDS011;30484;52.382;5.260;2022-12-07T04:21:58;23.85;;;1.83;;
44764;SDS011;30484;52.382;5.260;2022-12-07T04:24:30;21.23;;;1.70;;
44764;SDS011;30484;52.382;5.260;2022-12-07T04:26:59;19.90;;;1.88;;
44764;SDS011;30484;52.382;5.260;2022-12-07T04:29:29;13.45;;;1.95;;
44764;SDS011;30484;52.382;5.260;2022-12-07T04:32:01;18.33;;;1.98;;
44764;SDS011;30484;52.382;5.260;2022-12-07T04:34:32;18.95;;;1.88;;
44764;SDS011;30484;52.382;5.260;2022-12-07T04:37:09;9.38;;;1.20;;
44764;SDS011;30484;52.382;5.260;2022-12-07T04:39:38;26.45;;;1.52;;
44764;SDS011;30484;52.382;5.260;2022-12-07T04:42:07;24.38;;;1.50;;
44764;SDS011;30484;52.382;5.260;2022-12-07T04:44:39;21.88;;;1.75;;
44764;SDS011;30484;52.382;5.260;2022-12-07T04:47:09;21.90;;;1.95;;
44764;SDS011;30484;52.382;5.260;2022-12-07T04:49:46;15.70;;;1.48;;
44764;SDS011;30484;52.382;5.260;2022-12-07T04:52:15;21.38;;;2.10;;
44764;SDS011;30484;52.382;5.260;2022-12-07T04:54:45;24.90;;;2.08;;
44764;SDS011;30484;52.382;5.260;2022-12-07T04:57:14;26.33;;;1.80;;
44764;SDS011;30484;52.382;5.260;2022-12-07T04:59:50;14.10;;;2.28;;
44764;SDS011;30484;52.382;5.260;2022-12-07T05:02:21;11.80;;;1.60;;
44764;SDS011;30484;52.382;5.260;2022-12-07T05:04:53;20.58;;;1.88;;
44764;SDS011;30484;52.382;5.260;2022-12-07T05:07:23;22.30;;;1.70;;
44764;SDS011;30484;52.382;5.260;2022-12-07T05:09:53;21.17;;;1.52;;
44764;SDS011;30484;52.382;5.260;2022-12-07T05:12:24;23.35;;;1.90;;
44764;SDS011;30484;52.382;5.260;2022-12-07T05:14:54;18.17;;;2.03;;
44764;SDS011;30484;52.382;5.260;2022-12-07T05:17:24;24.20;;;1.63;;
44764;SDS011;30484;52.382;5.260;2022-12-07T05:19:57;12.52;;;1.77;;
44764;SDS011;30484;52.382;5.260;2022-12-07T05:22:27;17.35;;;2.03;;
44764;SDS011;30484;52.382;5.260;2022-12-07T05:24:57;18.35;;;2.65;;
44764;SDS011;30484;52.382;5.260;2022-12-07T05:27:27;17.90;;;2.33;;
44764;SDS011;30484;52.382;5.260;2022-12-07T05:29:55;26.27;;;2.03;;
44764;SDS011;30484;52.382;5.260;2022-12-07T05:32:29;16.27;;;1.63;;
44764;SDS011;30484;52.382;5.260;2022-12-07T05:35:00;24.90;;;1.48;;
44764;SDS011;30484;52.382;5.260;2022-12-07T05:37:30;23.45;;;2.15;;
44764;SDS011;30484;52.382;5.260;2022-12-07T05:40:02;19.98;;;1.73;;
44764;SDS011;30484;52.382;5.260;2022-12-07T05:42:33;13.75;;;1.23;;
44764;SDS011;30484;52.382;5.260;2022-12-07T05:45:07;13.50;;;1.67;;
44764;SDS011;30484;52.382;5.260;2022-12-07T05:47:38;10.43;;;1.13;;
44764;SDS011;30484;52.382;5.260;2022-12-07T05:50:10;14.93;;;1.65;;
44764;SDS011;30484;52.382;5.260;2022-12-07T05:52:41;14.15;;;1.88;;
44764;SDS011;30484;52.382;5.260;2022-12-07T05:55:10;28.85;;;2.65;;
44764;SDS011;30484;52.382;5.260;2022-12-07T05:57:40;21.55;;;2.80;;
44764;SDS011;30484;52.382;5.260;2022-12-07T06:00:30;22.25;;;2.35;;
44764;SDS011;30484;52.382;5.260;2022-12-07T06:03:00;16.20;;;1.92;;
44764;SDS011;30484;52.382;5.260;2022-12-07T06:05:31;19.75;;;4.90;;
44764;SDS011;30484;52.382;5.260;2022-12-07T06:08:00;15.73;;;3.58;;
44764;SDS011;30484;52.382;5.260;2022-12-07T06:10:31;31.40;;;4.72;;
44764;SDS011;30484;52.382;5.260;2022-12-07T06:13:00;22.25;;;6.20;;
44764;SDS011;30484;52.382;5.260;2022-12-07T06:15:28;18.95;;;4.18;;
44764;SDS011;30484;52.382;5.260;2022-12-07T06:17:58;15.80;;;3.03;;
44764;SDS011;30484;52.382;5.260;2022-12-07T06:20:28;17.42;;;3.35;;
44764;SDS011;30484;52.382;5.260;2022-12-07T06:22:59;21.27;;;3.28;;
44764;SDS011;30484;52.382;5.260;2022-12-07T06:25:27;12.77;;;3.05;;
44764;SDS011;30484;52.382;5.260;2022-12-07T06:27:56;14.65;;;2.20;;
44764;SDS011;30484;52.382;5.260;2022-12-07T06:30:27;16.88;;;2.03;;
44764;SDS011;30484;52.382;5.260;2022-12-07T06:32:56;10.90;;;1.42;;
44764;SDS011;30484;52.382;5.260;2022-12-07T06:35:24;16.25;;;1.70;;
44764;SDS011;30484;52.382;5.260;2022-12-07T06:37:54;14.50;;;1.40;;
44764;SDS011;30484;52.382;5.260;2022-12-07T06:40:24;11.63;;;1.67;;
44764;SDS011;30484;52.382;5.260;2022-12-07T06:42:55;13.35;;;1.70;;
44764;SDS011;30484;52.382;5.260;2022-12-07T06:45:25;18.38;;;4.95;;
44764;SDS011;30484;52.382;5.260;2022-12-07T06:47:56;13.05;;;2.28;;
44764;SDS011;30484;52.382;5.260;2022-12-07T06:50:25;19.45;;;3.65;;
44764;SDS011;30484;52.382;5.260;2022-12-07T06:52:56;20.52;;;6.03;;
44764;SDS011;30484;52.382;5.260;2022-12-07T06:55:27;27.20;;;7.00;;
44764;SDS011;30484;52.382;5.260;2022-12-07T06:57:57;27.63;;;7.25;;
44764;SDS011;30484;52.382;5.260;2022-12-07T07:00:28;18.58;;;3.45;;
44764;SDS011;30484;52.382;5.260;2022-12-07T07:02:58;20.85;;;3.30;;
44764;SDS011;30484;52.382;5.260;2022-12-07T07:05:26;10.93;;;2.58;;
44764;SDS011;30484;52.382;5.260;2022-12-07T07:07:57;22.40;;;3.58;;
44764;SDS011;30484;52.382;5.260;2022-12-07T07:10:46;22.58;;;4.72;;
44764;SDS011;30484;52.382;5.260;2022-12-07T07:13:14;12.07;;;2.13;;
44764;SDS011;30484;52.382;5.260;2022-12-07T07:15:44;13.63;;;3.08;;
44764;SDS011;30484;52.382;5.260;2022-12-07T07:18:12;23.52;;;2.97;;
44764;SDS011;30484;52.382;5.260;2022-12-07T07:20:41;17.65;;;4.32;;
44764;SDS011;30484;52.382;5.260;2022-12-07T07:23:13;16.90;;;3.67;;
44764;SDS011;30484;52.382;5.260;2022-12-07T07:25:41;22.33;;;3.30;;
44764;SDS011;30484;52.382;5.260;2022-12-07T07:28:10;13.93;;;2.15;;
44764;SDS011;30484;52.382;5.260;2022-12-07T07:30:40;19.58;;;2.50;;
44764;SDS011;30484;52.382;5.260;2022-12-07T07:33:10;8.25;;;1.70;;
44764;SDS011;30484;52.382;5.260;2022-12-07T07:35:40;13.13;;;2.30;;
44764;SDS011;30484;52.382;5.260;2022-12-07T07:38:09;22.33;;;1.90;;
44764;SDS011;30484;52.382;5.260;2022-12-07T07:40:41;26.10;;;8.07;;
44764;SDS011;30484;52.382;5.260;2022-12-07T07:43:10;22.23;;;4.88;;
44764;SDS011;30484;52.382;5.260;2022-12-07T07:45:39;14.52;;;2.97;;
44764;SDS011;30484;52.382;5.260;2022-12-07T07:48:09;14.27;;;2.15;;
44764;SDS011;30484;52.382;5.260;2022-12-07T07:50:39;11.80;;;1.52;;
44764;SDS011;30484;52.382;5.260;2022-12-07T07:53:09;15.35;;;1.60;;
44764;SDS011;30484;52.382;5.260;2022-12-07T07:55:39;10.18;;;1.23;;
44764;SDS011;30484;52.382;5.260;2022-12-07T07:58:09;14.90;;;1.92;;
44764;SDS011;30484;52.382;5.260;2022-12-07T08:00:39;17.27;;;3.10;;
44764;SDS011;30484;52.382;5.260;2022-12-07T08:03:09;18.17;;;3.45;;
44764;SDS011;30484;52.382;5.260;2022-12-07T08:05:39;10.63;;;2.47;;
44764;SDS011;30484;52.382;5.260;2022-12-07T08:08:09;15.07;;;2.08;;
44764;SDS011;30484;52.382;5.260;2022-12-07T08:10:40;7.80;;;1.80;;
44764;SDS011;30484;52.382;5.260;2022-12-07T08:13:11;12.98;;;1.50;;
44764;SDS011;30484;52.382;5.260;2022-12-07T08:15:41;12.95;;;1.40;;
44764;SDS011;30484;52.382;5.260;2022-12-07T08:18:12;12.82;;;1.48;;
44764;SDS011;30484;52.382;5.260;2022-12-07T08:20:43;11.73;;;1.38;;
44764;SDS011;30484;52.382;5.260;2022-12-07T08:23:13;15.43;;;1.70;;
44764;SDS011;30484;52.382;5.260;2022-12-07T08:25:43;10.63;;;1.20;;
44764;SDS011;30484;52.382;5.260;2022-12-07T08:28:12;12.73;;;1.40;;
44764;SDS011;30484;52.382;5.260;2022-12-07T08:30:40;12.52;;;1.13;;
44764;SDS011;30484;52.382;5.260;2022-12-07T08:33:17;13.55;;;1.20;;
44764;SDS011;30484;52.382;5.260;2022-12-07T08:35:49;13.90;;;1.65;;
44764;SDS011;30484;52.382;5.260;2022-12-07T08:38:19;12.68;;;1.73;;
44764;SDS011;30484;52.382;5.260;2022-12-07T08:40:57;21.80;;;2.42;;
44764;SDS011;30484;52.382;5.260;2022-12-07T08:43:27;15.40;;;1.42;;
44764;SDS011;30484;52.382;5.260;2022-12-07T08:45:59;9.55;;;1.10;;
44764;SDS011;30484;52.382;5.260;2022-12-07T08:48:39;7.25;;;1.10;;
44764;SDS011;30484;52.382;5.260;2022-12-07T08:51:13;11.48;;;1.40;;
44764;SDS011;30484;52.382;5.260;2022-12-07T08:53:43;15.65;;;2.80;;
44764;SDS011;30484;52.382;5.260;2022-12-07T08:56:15;13.18;;;2.13;;
44764;SDS011;30484;52.382;5.260;2022-12-07T08:58:43;9.88;;;1.85;;
44764;SDS011;30484;52.382;5.260;2022-12-07T09:01:15;9.10;;;1.20;;
44764;SDS011;30484;52.382;5.260;2022-12-07T09:03:45;8.38;;;1.52;;
44764;SDS011;30484;52.382;5.260;2022-12-07T09:06:17;7.65;;;1.38;;
44764;SDS011;30484;52.382;5.260;2022-12-07T09:08:47;14.63;;;1.50;;
44764;SDS011;30484;52.382;5.260;2022-12-07T09:11:25;7.55;;;1.13;;
44764;SDS011;30484;52.382;5.260;2022-12-07T09:13:55;5.90;;;1.52;;
44764;SDS011;30484;52.382;5.260;2022-12-07T09:16:25;7.97;;;1.92;;
44764;SDS011;30484;52.382;5.260;2022-12-07T09:18:55;6.65;;;1.52;;
44764;SDS011;30484;52.382;5.260;2022-12-07T09:21:24;10.40;;;0.95;;
44764;SDS011;30484;52.382;5.260;2022-12-07T09:23:54;8.80;;;1.38;;
44764;SDS011;30484;52.382;5.260;2022-12-07T09:26:26;9.13;;;1.42;;
44764;SDS011;30484;52.382;5.260;2022-12-07T09:28:57;7.60;;;0.88;;
44764;SDS011;30484;52.382;5.260;2022-12-07T09:31:27;7.45;;;1.20;;
44764;SDS011;30484;52.382;5.260;2022-12-07T09:33:58;12.38;;;1.30;;
44764;SDS011;30484;52.382;5.260;2022-12-07T09:36:28;6.93;;;1.27;;
44764;SDS011;30484;52.382;5.260;2022-12-07T09:39:00;7.13;;;1.17;;
44764;SDS011;30484;52.382;5.260;2022-12-07T09:41:32;8.32;;;1.73;;
44764;SDS011;30484;52.382;5.260;2022-12-07T09:44:09;7.85;;;1.23;;
44764;SDS011;30484;52.382;5.260;2022-12-07T09:46:45;10.07;;;1.45;;
44764;SDS011;30484;52.382;5.260;2022-12-07T09:49:18;7.90;;;1.10;;
44764;SDS011;30484;52.382;5.260;2022-12-07T09:51:58;11.80;;;1.33;;
44764;SDS011;30484;52.382;5.260;2022-12-07T09:54:31;4.72;;;1.15;;
44764;SDS011;30484;52.382;5.260;2022-12-07T09:57:09;7.03;;;1.27;;
44764;SDS011;30484;52.382;5.260;2022-12-07T09:59:42;7.47;;;1.58;;
44764;SDS011;30484;52.382;5.260;2022-12-07T10:02:34;7.60;;;1.27;;
44764;SDS011;30484;52.382;5.260;2022-12-07T10:05:06;6.43;;;1.20;;
44764;SDS011;30484;52.382;5.260;2022-12-07T10:07:49;7.20;;;1.15;;
44764;SDS011;30484;52.382;5.260;2022-12-07T10:10:22;6.13;;;1.30;;
44764;SDS011;30484;52.382;5.260;2022-12-07T10:13:05;8.82;;;1.40;;
44764;SDS011;30484;52.382;5.260;2022-12-07T10:15:40;14.00;;;1.60;;
44764;SDS011;30484;52.382;5.260;2022-12-07T10:18:29;8.95;;;1.95;;
44764;SDS011;30484;52.382;5.260;2022-12-07T10:21:04;7.00;;;1.15;;
44764;SDS011;30484;52.382;5.260;2022-12-07T10:23:39;11.38;;;1.77;;
44764;SDS011;30484;52.382;5.260;2022-12-07T10:29:04;11.95;;;1.30;;
44764;SDS011;30484;52.382;5.260;2022-12-07T10:31:45;9.18;;;1.50;;
44764;SDS011;30484;52.382;5.260;2022-12-07T10:34:24;7.28;;;1.13;;
44764;SDS011;30484;52.382;5.260;2022-12-07T10:37:11;9.95;;;1.38;;
44764;SDS011;30484;52.382;5.260;2022-12-07T10:39:47;9.70;;;1.40;;
44764;SDS011;30484;52.382;5.260;2022-12-07T10:42:18;9.23;;;1.92;;
44764;SDS011;30484;52.382;5.260;2022-12-07T10:45:06;9.23;;;1.58;;
44764;SDS011;30484;52.382;5.260;2022-12-07T10:47:42;7.88;;;1.00;;
44764;SDS011;30484;52.382;5.260;2022-12-07T10:50:31;8.40;;;1.30;;
44764;SDS011;30484;52.382;5.260;2022-12-07T10:53:37;7.60;;;1.30;;
44764;SDS011;30484;52.382;5.260;2022-12-07T10:56:35;11.48;;;2.17;;
44764;SDS011;30484;52.382;5.260;2022-12-07T10:59:48;10.75;;;1.33;;
44764;SDS011;30484;52.382;5.260;2022-12-07T11:06:00;8.63;;;1.20;;
44764;SDS011;30484;52.382;5.260;2022-12-07T11:08:49;8.05;;;1.20;;
44764;SDS011;30484;52.382;5.260;2022-12-07T11:11:44;7.78;;;1.40;;
44764;SDS011;30484;52.382;5.260;2022-12-07T11:14:24;10.25;;;2.25;;
44764;SDS011;30484;52.382;5.260;2022-12-07T11:17:09;13.40;;;1.30;;
44764;SDS011;30484;52.382;5.260;2022-12-07T11:19:53;10.05;;;1.55;;
44764;SDS011;30484;52.382;5.260;2022-12-07T11:22:34;8.73;;;1.40;;
44764;SDS011;30484;52.382;5.260;2022-12-07T11:25:17;6.40;;;1.45;;
44764;SDS011;30484;52.382;5.260;2022-12-07T11:28:02;10.63;;;1.50;;
44764;SDS011;30484;52.382;5.260;2022-12-07T11:30:50;8.40;;;1.98;;
44764;SDS011;30484;52.382;5.260;2022-12-07T11:33:32;12.32;;;1.55;;
44764;SDS011;30484;52.382;5.260;2022-12-07T11:36:14;9.32;;;1.25;;
44764;SDS011;30484;52.382;5.260;2022-12-07T11:39:01;7.00;;;1.50;;
44764;SDS011;30484;52.382;5.260;2022-12-07T11:41:34;10.43;;;1.50;;
44764;SDS011;30484;52.382;5.260;2022-12-07T11:44:15;10.07;;;1.50;;
44764;SDS011;30484;52.382;5.260;2022-12-07T11:46:58;11.02;;;1.45;;
44764;SDS011;30484;52.382;5.260;2022-12-07T11:49:40;5.28;;;1.17;;
44764;SDS011;30484;52.382;5.260;2022-12-07T11:52:17;7.57;;;1.38;;
44764;SDS011;30484;52.382;5.260;2022-12-07T11:54:53;8.52;;;1.33;;
44764;SDS011;30484;52.382;5.260;2022-12-07T11:57:25;8.68;;;1.40;;
44764;SDS011;30484;52.382;5.260;2022-12-07T12:00:04;8.38;;;1.45;;
44764;SDS011;30484;52.382;5.260;2022-12-07T12:02:46;8.60;;;1.45;;
44764;SDS011;30484;52.382;5.260;2022-12-07T12:05:27;7.32;;;1.73;;
44764;SDS011;30484;52.382;5.260;2022-12-07T12:07:59;8.63;;;1.35;;
44764;SDS011;30484;52.382;5.260;2022-12-07T12:11:06;6.88;;;1.30;;
44764;SDS011;30484;52.382;5.260;2022-12-07T12:17:22;9.82;;;2.05;;
44764;SDS011;30484;52.382;5.260;2022-12-07T12:20:30;7.32;;;1.30;;
44764;SDS011;30484;52.382;5.260;2022-12-07T12:23:07;9.95;;;2.00;;
44764;SDS011;30484;52.382;5.260;2022-12-07T12:25:44;11.25;;;1.60;;
44764;SDS011;30484;52.382;5.260;2022-12-07T12:28:20;11.52;;;1.90;;
44764;SDS011;30484;52.382;5.260;2022-12-07T12:31:04;10.13;;;1.98;;
44764;SDS011;30484;52.382;5.260;2022-12-07T12:33:38;12.55;;;1.98;;
44764;SDS011;30484;52.382;5.260;2022-12-07T12:36:20;13.95;;;2.00;;
44764;SDS011;30484;52.382;5.260;2022-12-07T12:39:08;9.90;;;1.60;;
44764;SDS011;30484;52.382;5.260;2022-12-07T12:41:52;12.77;;;1.80;;
44764;SDS011;30484;52.382;5.260;2022-12-07T12:47:52;9.25;;;1.48;;
44764;SDS011;30484;52.382;5.260;2022-12-07T12:50:26;7.43;;;1.60;;
44764;SDS011;30484;52.382;5.260;2022-12-07T12:53:12;11.50;;;3.05;;
44764;SDS011;30484;52.382;5.260;2022-12-07T12:59:25;8.50;;;1.50;;
44764;SDS011;30484;52.382;5.260;2022-12-07T13:02:08;6.80;;;1.42;;
44764;SDS011;30484;52.382;5.260;2022-12-07T13:04:52;9.85;;;1.70;;
44764;SDS011;30484;52.382;5.260;2022-12-07T13:10:33;9.70;;;1.27;;
44764;SDS011;30484;52.382;5.260;2022-12-07T13:22:46;9.00;;;1.48;;
44764;SDS011;30484;52.382;5.260;2022-12-07T13:28:44;10.32;;;1.42;;
44764;SDS011;30484;52.382;5.260;2022-12-07T13:31:19;9.48;;;1.52;;
44764;SDS011;30484;52.382;5.260;2022-12-07T13:34:01;11.18;;;1.38;;
44764;SDS011;30484;52.382;5.260;2022-12-07T13:36:33;8.63;;;1.10;;
44764;SDS011;30484;52.382;5.260;2022-12-07T13:39:11;6.10;;;0.90;;
44764;SDS011;30484;52.382;5.260;2022-12-07T13:41:51;9.57;;;1.48;;
44764;SDS011;30484;52.382;5.260;2022-12-07T13:44:23;5.78;;;0.95;;
44764;SDS011;30484;52.382;5.260;2022-12-07T13:46:57;6.75;;;1.10;;
44764;SDS011;30484;52.382;5.260;2022-12-07T13:49:37;5.43;;;1.02;;
44764;SDS011;30484;52.382;5.260;2022-12-07T13:52:20;11.65;;;1.45;;
44764;SDS011;30484;52.382;5.260;2022-12-07T13:54:55;5.72;;;1.13;;
44764;SDS011;30484;52.382;5.260;2022-12-07T13:57:43;7.38;;;1.40;;
44764;SDS011;30484;52.382;5.260;2022-12-07T14:00:15;4.53;;;0.95;;
44764;SDS011;30484;52.382;5.260;2022-12-07T14:02:54;7.32;;;1.20;;
44764;SDS011;30484;52.382;5.260;2022-12-07T14:05:27;9.55;;;1.42;;
44764;SDS011;30484;52.382;5.260;2022-12-07T14:07:59;10.65;;;1.15;;
44764;SDS011;30484;52.382;5.260;2022-12-07T14:10:30;7.55;;;1.25;;
44764;SDS011;30484;52.382;5.260;2022-12-07T14:13:22;7.60;;;1.42;;
44764;SDS011;30484;52.382;5.260;2022-12-07T14:16:00;6.68;;;1.58;;
44764;SDS011;30484;52.382;5.260;2022-12-07T14:18:36;6.90;;;1.20;;
44764;SDS011;30484;52.382;5.260;2022-12-07T14:21:14;6.88;;;1.38;;
44764;SDS011;30484;52.382;5.260;2022-12-07T14:23:54;6.22;;;1.30;;
44764;SDS011;30484;52.382;5.260;2022-12-07T14:27:16;9.13;;;1.50;;
44764;SDS011;30484;52.382;5.260;2022-12-07T14:29:48;6.63;;;1.30;;
44764;SDS011;30484;52.382;5.260;2022-12-07T14:32:21;4.72;;;1.10;;
44764;SDS011;30484;52.382;5.260;2022-12-07T14:34:56;14.73;;;1.58;;
44764;SDS011;30484;52.382;5.260;2022-12-07T14:37:29;7.03;;;1.30;;
44764;SDS011;30484;52.382;5.260;2022-12-07T14:39:58;9.30;;;1.25;;
44764;SDS011;30484;52.382;5.260;2022-12-07T14:42:29;9.25;;;1.25;;
44764;SDS011;30484;52.382;5.260;2022-12-07T14:45:03;5.90;;;1.00;;
44764;SDS011;30484;52.382;5.260;2022-12-07T14:47:43;10.52;;;1.02;;
44764;SDS011;30484;52.382;5.260;2022-12-07T14:50:35;3.20;;;1.10;;
44764;SDS011;30484;52.382;5.260;2022-12-07T14:53:27;6.18;;;1.00;;
44764;SDS011;30484;52.382;5.260;2022-12-07T14:56:04;6.72;;;1.20;;
44764;SDS011;30484;52.382;5.260;2022-12-07T14:58:33;6.43;;;1.20;;
44764;SDS011;30484;52.382;5.260;2022-12-07T15:01:04;5.72;;;1.40;;
44764;SDS011;30484;52.382;5.260;2022-12-07T15:03:32;9.60;;;1.35;;
44764;SDS011;30484;52.382;5.260;2022-12-07T15:06:05;9.40;;;1.40;;
44764;SDS011;30484;52.382;5.260;2022-12-07T15:08:35;10.38;;;1.40;;
44764;SDS011;30484;52.382;5.260;2022-12-07T15:11:05;11.75;;;1.33;;
44764;SDS011;30484;52.382;5.260;2022-12-07T15:13:35;12.80;;;1.30;;
44764;SDS011;30484;52.382;5.260;2022-12-07T15:16:25;6.95;;;1.23;;
44764;SDS011;30484;52.382;5.260;2022-12-07T15:19:15;8.93;;;1.13;;
44764;SDS011;30484;52.382;5.260;2022-12-07T15:21:59;8.23;;;1.40;;
44764;SDS011;30484;52.382;5.260;2022-12-07T15:24:28;10.25;;;1.10;;
44764;SDS011;30484;52.382;5.260;2022-12-07T15:26:58;8.73;;;1.23;;
44764;SDS011;30484;52.382;5.260;2022-12-07T15:29:36;9.52;;;1.33;;
44764;SDS011;30484;52.382;5.260;2022-12-07T15:32:07;5.82;;;1.65;;
44764;SDS011;30484;52.382;5.260;2022-12-07T15:34:35;10.48;;;2.03;;
44764;SDS011;30484;52.382;5.260;2022-12-07T15:37:06;10.50;;;1.80;;
44764;SDS011;30484;52.382;5.260;2022-12-07T15:39:38;11.85;;;1.90;;
44764;SDS011;30484;52.382;5.260;2022-12-07T15:42:07;11.45;;;1.70;;
44764;SDS011;30484;52.382;5.260;2022-12-07T15:44:37;9.52;;;1.50;;
44764;SDS011;30484;52.382;5.260;2022-12-07T15:47:27;7.78;;;1.90;;
44764;SDS011;30484;52.382;5.260;2022-12-07T15:49:56;11.88;;;2.00;;
44764;SDS011;30484;52.382;5.260;2022-12-07T15:52:27;13.60;;;2.28;;
44764;SDS011;30484;52.382;5.260;2022-12-07T15:54:56;12.43;;;1.80;;
44764;SDS011;30484;52.382;5.260;2022-12-07T15:57:26;11.15;;;1.90;;
44764;SDS011;30484;52.382;5.260;2022-12-07T15:59:55;11.63;;;2.53;;
44764;SDS011;30484;52.382;5.260;2022-12-07T16:02:29;17.33;;;2.33;;